Time;durP1;ratioP1;P1;durP2;ratioP2;P2;SDS_P1;SDS_P2;PMS_P1;PMS_P2;Temp;Humidity;BMP_temperature;BMP_pressure;BME280_temperature;BME280_humidity;BME280_pressure;Samples;Min_cycle;Max_cycle;Signal;HPM_P1;HPM_P2
2024/01/13 00:00:16;;;;;;;48.20;18.23;;;-3.10;99.90;;;;;;7379412;19;20040;-70
2024/01/13 00:02:49;;;;;;;45.67;18.80;;;-2.90;99.90;;;;;;7379024;19;20074;-69
2024/01/13 00:05:19;;;;;;;45.30;18.35;;;-3.00;99.90;;;;;;7379182;19;20071;-70
2024/01/13 00:07:49;;;;;;;46.25;19.92;;;-2.90;99.90;;;;;;7380918;19;20014;-70
2024/01/13 00:10:20;;;;;;;40.15;18.17;;;-2.70;99.90;;;;;;7388749;19;20427;-70
2024/01/13 00:12:50;;;;;;;37.05;17.63;;;-2.80;99.90;;;;;;7379051;19;20025;-70
2024/01/13 00:15:22;;;;;;;39.67;17.38;;;-2.80;99.90;;;;;;7378228;19;20029;-70
2024/01/13 00:17:54;;;;;;;46.15;19.42;;;-2.80;99.90;;;;;;7376457;19;20033;-71
2024/01/13 00:20:25;;;;;;;42.15;18.67;;;-3.00;99.90;;;;;;7378403;19;20019;-69
2024/01/13 00:22:55;;;;;;;39.28;17.02;;;-3.00;99.90;;;;;;7377505;19;20030;-70
2024/01/13 00:25:25;;;;;;;55.28;22.95;;;-3.10;99.30;;;;;;7378666;19;20026;-69
2024/01/13 00:27:55;;;;;;;46.42;17.15;;;-3.20;99.90;;;;;;7377353;19;20114;-69
2024/01/13 00:30:25;;;;;;;49.95;19.92;;;-3.10;99.90;;;;;;7378020;19;24292;-70
2024/01/13 00:32:58;;;;;;;41.13;17.77;;;-3.10;99.90;;;;;;7381002;19;20941;-69
2024/01/13 00:35:28;;;;;;;39.40;16.77;;;-3.10;99.90;;;;;;7383404;19;20447;-70
2024/01/13 00:37:58;;;;;;;33.60;15.35;;;-3.10;99.90;;;;;;7383921;19;20384;-69
2024/01/13 00:40:28;;;;;;;41.67;16.52;;;-3.10;99.90;;;;;;7381650;19;20485;-70
2024/01/13 00:42:59;;;;;;;47.30;19.95;;;-3.20;99.90;;;;;;7384211;19;20022;-71
2024/01/13 00:45:29;;;;;;;44.47;19.63;;;-3.10;99.90;;;;;;7379384;19;20104;-69
2024/01/13 00:48:01;;;;;;;44.45;19.23;;;-3.10;99.90;;;;;;7381590;19;20040;-70
2024/01/13 00:50:32;;;;;;;42.45;17.65;;;-3.00;99.90;;;;;;7384742;19;20063;-70
2024/01/13 00:53:03;;;;;;;40.67;15.82;;;-3.10;99.90;;;;;;7384311;19;20007;-69
2024/01/13 00:55:33;;;;;;;38.47;14.65;;;-3.20;99.90;;;;;;7384009;19;20424;-70
2024/01/13 00:58:03;;;;;;;35.85;15.38;;;-3.20;99.90;;;;;;7379999;19;20017;-69
2024/01/13 01:00:33;;;;;;;38.17;16.70;;;-3.20;99.90;;;;;;7385143;19;20479;-69
2024/01/13 01:03:06;;;;;;;37.03;15.27;;;-3.10;99.90;;;;;;7384728;19;20464;-70
2024/01/13 01:05:36;;;;;;;41.85;16.73;;;-3.10;99.90;;;;;;7384283;19;20050;-70
2024/01/13 01:08:07;;;;;;;38.03;16.30;;;-3.30;95.90;;;;;;7383560;19;20482;-71
2024/01/13 01:10:39;;;;;;;41.00;16.23;;;-3.30;97.80;;;;;;7379288;19;20353;-70
2024/01/13 01:13:09;;;;;;;35.95;16.17;;;-3.30;99.90;;;;;;7383305;19;20018;-69
2024/01/13 01:15:39;;;;;;;41.22;17.23;;;-3.20;99.90;;;;;;7382967;19;20006;-69
2024/01/13 01:18:12;;;;;;;41.67;17.02;;;-3.10;99.90;;;;;;7383893;19;20015;-70
2024/01/13 01:20:53;;;;;;;41.75;17.25;;;-3.10;99.90;;;;;;7382187;19;20021;-70
2024/01/13 01:23:24;;;;;;;38.50;15.48;;;-3.00;99.90;;;;;;7384053;19;20424;-70
2024/01/13 01:25:54;;;;;;;45.53;18.42;;;-3.10;99.90;;;;;;7382306;19;20021;-69
2024/01/13 01:28:25;;;;;;;39.85;17.35;;;-3.10;99.90;;;;;;7384068;19;20027;-70
2024/01/13 01:31:04;;;;;;;43.97;18.50;;;-3.10;94.90;;;;;;7383101;19;20082;-70
2024/01/13 01:33:38;;;;;;;49.00;18.88;;;-3.10;96.30;;;;;;7384985;19;20007;-70
2024/01/13 01:36:10;;;;;;;53.38;20.42;;;-3.00;97.60;;;;;;7379475;19;20501;-70
2024/01/13 01:38:40;;;;;;;51.75;19.27;;;-3.10;94.50;;;;;;7383151;19;20018;-70
2024/01/13 01:41:15;;;;;;;45.13;19.92;;;-3.10;96.30;;;;;;7381696;19;20045;-70
2024/01/13 01:43:47;;;;;;;40.58;17.65;;;-3.10;93.70;;;;;;7380443;19;20039;-69
2024/01/13 01:46:18;;;;;;;44.65;19.55;;;-3.10;92.20;;;;;;7381787;19;20014;-69
2024/01/13 01:48:58;;;;;;;44.47;19.67;;;-3.20;90.00;;;;;;7383321;19;20022;-69
2024/01/13 01:51:30;;;;;;;42.35;16.65;;;-3.10;92.40;;;;;;7381881;19;20519;-69
2024/01/13 01:54:02;;;;;;;41.70;18.15;;;-3.10;89.30;;;;;;7383124;19;20503;-69
2024/01/13 01:56:35;;;;;;;43.50;17.45;;;-3.20;89.70;;;;;;7380365;19;20014;-69
2024/01/13 01:59:07;;;;;;;32.47;14.57;;;-3.10;87.50;;;;;;7383010;19;20464;-69
2024/01/13 02:01:37;;;;;;;35.88;15.00;;;-3.30;79.10;;;;;;7382209;19;20002;-69
2024/01/13 02:04:10;;;;;;;34.83;15.27;;;-3.40;77.60;;;;;;7376900;19;20011;-70
2024/01/13 02:06:40;;;;;;;42.05;15.85;;;-3.30;80.10;;;;;;7378872;19;20021;-70
2024/01/13 02:09:12;;;;;;;42.97;18.17;;;-3.20;77.60;;;;;;7381171;19;20077;-69
2024/01/13 02:11:42;;;;;;;45.28;17.77;;;-3.30;75.70;;;;;;7382286;19;20010;-68
2024/01/13 02:14:12;;;;;;;41.50;18.48;;;-3.30;75.10;;;;;;7381960;19;20028;-69
2024/01/13 02:16:42;;;;;;;39.88;16.83;;;-3.20;76.80;;;;;;7380863;19;20031;-70
2024/01/13 02:19:15;;;;;;;43.45;17.95;;;-3.30;67.30;;;;;;7380621;19;20003;-69
2024/01/13 02:21:47;;;;;;;38.55;16.98;;;-3.40;70.70;;;;;;7380168;19;20025;-69
2024/01/13 02:24:18;;;;;;;42.65;18.58;;;-3.30;74.60;;;;;;7383708;19;20086;-69
2024/01/13 02:26:48;;;;;;;43.40;18.10;;;-3.30;73.20;;;;;;7392246;19;20018;-68
2024/01/13 02:29:18;;;;;;;44.03;18.75;;;-3.30;72.80;;;;;;7381777;19;20015;-70
2024/01/13 02:31:48;;;;;;;41.22;17.65;;;-3.40;70.50;;;;;;7380964;19;20021;-68
2024/01/13 02:34:18;;;;;;;41.58;16.65;;;-3.50;73.60;;;;;;7380519;19;20018;-69
2024/01/13 02:36:51;;;;;;;35.35;14.57;;;-3.40;77.90;;;;;;7381021;19;20031;-70
2024/01/13 02:39:21;;;;;;;35.88;15.15;;;-3.50;65.40;;;;;;7378852;19;20558;-69
2024/01/13 02:41:51;;;;;;;32.70;13.93;;;-3.60;65.40;;;;;;7381256;19;20022;-70
2024/01/13 02:44:22;;;;;;;36.50;13.70;;;-3.60;68.90;;;;;;7380330;19;20645;-69
2024/01/13 02:46:52;;;;;;;36.58;14.70;;;-3.60;69.80;;;;;;7381009;19;20021;-69
2024/01/13 02:49:22;;;;;;;32.97;14.52;;;-3.60;80.50;;;;;;7381156;19;20014;-69
2024/01/13 02:51:55;;;;;;;41.83;16.35;;;-3.50;90.00;;;;;;7380836;19;20068;-69
2024/01/13 02:54:25;;;;;;;37.42;16.20;;;-3.50;85.90;;;;;;7381383;19;20459;-70
2024/01/13 02:56:55;;;;;;;41.92;16.40;;;-3.40;89.20;;;;;;7380689;19;20078;-69
2024/01/13 02:59:25;;;;;;;40.00;16.92;;;-3.60;82.00;;;;;;7379711;19;20033;-69
2024/01/13 03:01:55;;;;;;;37.97;16.10;;;-3.60;90.10;;;;;;7379716;19;20042;-69
2024/01/13 03:04:25;;;;;;;41.45;17.08;;;-3.60;92.50;;;;;;7380663;19;20014;-69
2024/01/13 03:06:58;;;;;;;38.50;17.77;;;-3.50;97.40;;;;;;7380753;19;20333;-69
2024/01/13 03:09:28;;;;;;;39.55;17.77;;;-3.50;99.90;;;;;;7380767;19;19998;-69
2024/01/13 03:11:58;;;;;;;42.00;17.75;;;-3.50;99.90;;;;;;7379101;19;20110;-69
2024/01/13 03:14:30;;;;;;;41.42;17.25;;;-3.40;99.90;;;;;;7379345;19;20803;-69
2024/01/13 03:17:00;;;;;;;40.10;17.20;;;-3.30;99.90;;;;;;7380007;19;20476;-69
2024/01/13 03:19:31;;;;;;;43.13;18.05;;;-3.40;99.90;;;;;;7378651;19;20010;-69
2024/01/13 03:22:04;;;;;;;43.17;17.73;;;-3.40;99.90;;;;;;7378063;19;20006;-69
2024/01/13 03:24:34;;;;;;;48.92;20.10;;;-3.40;99.90;;;;;;7379236;19;20011;-69
2024/01/13 03:27:04;;;;;;;44.78;17.70;;;-3.30;99.90;;;;;;7375270;19;20010;-69
2024/01/13 03:29:34;;;;;;;42.40;16.35;;;-3.40;93.30;;;;;;7380292;19;20003;-70
2024/01/13 03:32:04;;;;;;;40.85;16.63;;;-3.40;89.70;;;;;;7376542;19;20369;-71
2024/01/13 03:34:34;;;;;;;40.35;17.67;;;-3.50;90.70;;;;;;7380548;19;20010;-69
2024/01/13 03:37:07;;;;;;;44.20;18.00;;;-3.60;90.30;;;;;;7380125;19;20463;-69
2024/01/13 03:39:37;;;;;;;41.65;16.52;;;-3.40;93.60;;;;;;7380219;19;20006;-69
2024/01/13 03:42:05;;;;;;;38.15;16.67;;;-3.50;95.20;;;;;;7378561;19;20014;-69
2024/01/13 03:44:35;;;;;;;47.38;19.27;;;-3.50;94.90;;;;;;7380525;19;20019;-68
2024/01/13 03:47:05;;;;;;;39.97;16.63;;;-3.50;96.50;;;;;;7378408;19;20013;-68
2024/01/13 03:49:35;;;;;;;34.75;15.30;;;-3.60;97.70;;;;;;7374734;19;20475;-69
2024/01/13 03:52:08;;;;;;;35.33;15.85;;;-3.70;98.70;;;;;;7378578;19;20007;-70
2024/01/13 03:54:38;;;;;;;41.17;16.23;;;-3.60;99.90;;;;;;7373879;19;20010;-69
2024/01/13 03:57:08;;;;;;;34.47;14.65;;;-3.60;99.90;;;;;;7377061;19;20094;-70
2024/01/13 03:59:38;;;;;;;39.00;16.63;;;-3.50;99.90;;;;;;7378993;19;20043;-70
2024/01/13 04:02:08;;;;;;;43.03;16.38;;;-3.40;99.90;;;;;;7378406;19;20036;-70
2024/01/13 04:04:41;;;;;;;39.83;17.55;;;-3.40;99.90;;;;;;7378914;19;20018;-70
2024/01/13 04:07:14;;;;;;;42.95;18.02;;;-3.30;99.90;;;;;;7376858;19;20011;-69
2024/01/13 04:09:44;;;;;;;36.78;17.27;;;-3.20;99.90;;;;;;7376523;19;20077;-69
2024/01/13 04:12:14;;;;;;;37.42;15.55;;;-3.40;95.90;;;;;;7377535;19;20039;-69
2024/01/13 04:14:44;;;;;;;37.70;16.08;;;-3.40;94.10;;;;;;7378009;19;20014;-69
2024/01/13 04:17:14;;;;;;;38.65;15.15;;;-3.30;94.40;;;;;;7375839;19;20027;-69
2024/01/13 04:19:44;;;;;;;38.30;15.57;;;-3.30;82.50;;;;;;7376401;19;20600;-69
2024/01/13 04:22:17;;;;;;;36.58;17.42;;;-3.40;82.30;;;;;;7377194;19;20021;-68
2024/01/13 04:24:47;;;;;;;36.55;16.35;;;-3.30;82.80;;;;;;7378170;19;20010;-69
2024/01/13 04:27:17;;;;;;;35.33;15.82;;;-3.30;74.50;;;;;;7377272;19;20011;-69
2024/01/13 04:29:47;;;;;;;36.67;14.82;;;-3.30;72.20;;;;;;7376750;19;20033;-69
2024/01/13 04:32:21;;;;;;;35.93;14.77;;;-3.40;59.30;;;;;;7377456;19;20026;-70
2024/01/13 04:34:51;;;;;;;35.70;14.88;;;-3.50;57.40;;;;;;7375895;19;20263;-68
2024/01/13 04:37:23;;;;;;;38.10;15.75;;;-3.50;61.00;;;;;;7376754;19;20018;-69
2024/01/13 04:39:53;;;;;;;32.03;13.73;;;-3.50;64.10;;;;;;7375479;19;20472;-70
2024/01/13 04:42:23;;;;;;;31.92;12.93;;;-3.30;74.20;;;;;;7383146;19;20014;-69
2024/01/13 04:44:53;;;;;;;27.90;12.18;;;-3.60;56.80;;;;;;7383140;19;20013;-69
2024/01/13 04:47:23;;;;;;;34.28;15.88;;;-3.60;64.40;;;;;;7375718;19;20426;-68
2024/01/13 04:49:53;;;;;;;38.47;15.52;;;-3.60;76.90;;;;;;7375540;19;20014;-69
2024/01/13 04:52:26;;;;;;;37.88;16.75;;;-3.40;90.70;;;;;;7375683;19;20073;-69
2024/01/13 04:54:56;;;;;;;38.35;15.98;;;-3.40;85.40;;;;;;7375626;19;20018;-69
2024/01/13 04:57:26;;;;;;;35.60;14.13;;;-3.50;82.70;;;;;;7376903;19;20030;-68
2024/01/13 04:59:56;;;;;;;36.25;15.88;;;-3.40;90.10;;;;;;7377511;19;20007;-69
2024/01/13 05:02:26;;;;;;;41.88;18.05;;;-3.30;93.10;;;;;;7378115;19;20006;-69
2024/01/13 05:04:57;;;;;;;42.53;17.02;;;-3.20;93.80;;;;;;7376804;19;20387;-68
2024/01/13 05:07:29;;;;;;;39.45;16.75;;;-3.20;90.50;;;;;;7376952;19;20067;-69
2024/01/13 05:09:59;;;;;;;46.25;19.13;;;-3.20;90.90;;;;;;7375636;19;20485;-69
2024/01/13 05:12:29;;;;;;;42.17;19.05;;;-3.10;90.10;;;;;;7377139;19;20561;-69
2024/01/13 05:14:59;;;;;;;39.05;17.25;;;-3.10;80.60;;;;;;7375278;19;20762;-68
2024/01/13 05:17:29;;;;;;;40.15;17.05;;;-3.20;71.40;;;;;;7374648;19;20039;-69
2024/01/13 05:20:00;;;;;;;39.90;17.33;;;-3.20;67.70;;;;;;7372137;19;20014;-70
2024/01/13 05:22:34;;;;;;;40.97;17.13;;;-3.30;61.00;;;;;;7367943;19;20022;-71
2024/01/13 05:25:17;;;;;;;37.03;16.98;;;-3.30;59.60;;;;;;7346840;19;20087;-70
2024/01/13 05:27:48;;;;;;;38.35;16.80;;;-3.30;53.20;;;;;;7340114;19;20002;-70
2024/01/13 05:30:19;;;;;;;43.25;17.75;;;-3.20;56.00;;;;;;7367505;19;20518;-70
2024/01/13 05:32:51;;;;;;;41.95;17.42;;;-3.30;45.80;;;;;;7370905;19;20006;-70
2024/01/13 05:35:23;;;;;;;39.50;17.70;;;-3.20;50.30;;;;;;7369966;19;20018;-70
2024/01/13 05:37:56;;;;;;;40.85;16.70;;;-3.20;42.60;;;;;;7371336;19;20351;-70
2024/01/13 05:40:28;;;;;;;33.90;14.05;;;-3.10;45.00;;;;;;7373016;19;20047;-71
2024/01/13 05:42:59;;;;;;;37.47;15.82;;;-3.10;39.50;;;;;;7357831;19;20007;-70
2024/01/13 05:45:30;;;;;;;39.08;16.50;;;-3.10;37.20;;;;;;7370976;19;20030;-69
2024/01/13 05:48:02;;;;;;;35.42;15.85;;;-3.10;33.00;;;;;;7370909;19;20019;-69
2024/01/13 05:50:33;;;;;;;37.70;17.20;;;-3.00;32.60;;;;;;7371694;19;20010;-70
2024/01/13 05:53:08;;;;;;;43.75;16.83;;;-3.10;29.40;;;;;;7368038;19;20014;-69
2024/01/13 05:55:39;;;;;;;42.38;20.40;;;-3.00;30.80;;;;;;7372854;19;20035;-70
2024/01/13 05:58:11;;;;;;;39.38;15.63;;;-2.90;29.30;;;;;;7362440;19;20343;-70
2024/01/13 06:00:43;;;;;;;37.42;16.75;;;-2.90;25.60;;;;;;7367989;19;20068;-71
2024/01/13 06:03:14;;;;;;;40.75;16.73;;;-3.00;22.90;;;;;;7369604;19;20015;-71
2024/01/13 06:05:45;;;;;;;36.88;16.15;;;-3.00;21.00;;;;;;7373546;19;20003;-70
2024/01/13 06:08:19;;;;;;;39.95;19.35;;;-3.00;21.80;;;;;;7369870;19;20007;-69
2024/01/13 06:10:50;;;;;;;34.45;13.63;;;-2.90;20.00;;;;;;7369346;19;20007;-70
2024/01/13 06:13:22;;;;;;;33.92;14.13;;;-2.90;20.10;;;;;;7371456;19;20487;-69
2024/01/13 06:15:51;;;;;;;29.58;13.48;;;-2.90;16.00;;;;;;7373318;19;20019;-71
2024/01/13 06:18:22;;;;;;;25.92;11.07;;;-3.00;12.50;;;;;;7368851;19;20014;-70
2024/01/13 06:20:54;;;;;;;24.63;11.80;;;-3.00;8.00;;;;;;7373867;19;20381;-70
2024/01/13 06:23:29;;;;;;;31.50;13.18;;;-3.00;4.50;;;;;;7369998;19;20014;-70
2024/01/13 06:26:00;;;;;;;25.45;11.02;;;-2.90;2.40;;;;;;7371503;19;20017;-69
2024/01/13 06:28:32;;;;;;;27.88;12.82;;;-2.90;1.00;;;;;;7369749;19;20011;-70
2024/01/13 06:31:05;;;;;;;29.20;13.88;;;-2.90;1.00;;;;;;7370932;19;20407;-71
2024/01/13 06:33:36;;;;;;;36.05;16.38;;;-2.90;1.00;;;;;;7368788;19;20064;-69
2024/01/13 06:36:08;;;;;;;31.23;14.90;;;-2.90;1.00;;;;;;7370217;19;20014;-69
2024/01/13 06:38:42;;;;;;;34.40;15.52;;;-2.90;1.00;;;;;;7372336;19;20474;-71
2024/01/13 06:41:13;;;;;;;40.00;16.35;;;-3.00;1.00;;;;;;7372786;19;20424;-70
2024/01/13 06:43:45;;;;;;;38.55;16.48;;;-2.90;4.40;;;;;;7366893;19;20020;-70
2024/01/13 06:46:16;;;;;;;39.22;16.98;;;-2.80;4.40;;;;;;7368087;19;20722;-69
2024/01/13 06:48:48;;;;;;;36.55;17.42;;;-2.90;2.50;;;;;;7370665;19;20006;-70
2024/01/13 06:51:20;;;;;;;38.80;17.88;;;-2.90;1.00;;;;;;7369035;19;20019;-69
2024/01/13 06:53:54;;;;;;;39.15;18.17;;;-2.80;4.10;;;;;;7370950;19;20471;-70
2024/01/13 06:56:26;;;;;;;42.10;17.65;;;-2.90;2.00;;;;;;7369458;19;20050;-70
2024/01/13 06:58:57;;;;;;;36.53;17.63;;;-2.90;1.50;;;;;;7373025;19;20010;-70
2024/01/13 07:01:28;;;;;;;38.13;17.55;;;-2.80;4.50;;;;;;7370602;19;20040;-70
2024/01/13 07:04:00;;;;;;;37.75;16.67;;;-2.80;4.40;;;;;;7371006;19;20093;-70
2024/01/13 07:06:32;;;;;;;40.65;16.50;;;-2.90;4.30;;;;;;7363397;19;20011;-70
2024/01/13 07:09:06;;;;;;;35.22;15.38;;;-2.80;3.70;;;;;;7370061;19;20380;-70
2024/01/13 07:11:37;;;;;;;38.38;15.55;;;-2.90;1.00;;;;;;7368545;19;20032;-70
2024/01/13 07:14:09;;;;;;;35.53;18.75;;;-2.90;1.00;;;;;;7370974;19;20033;-70
2024/01/13 07:16:40;;;;;;;36.67;16.25;;;-2.90;2.10;;;;;;7367809;19;20014;-69
2024/01/13 07:19:10;;;;;;;40.85;17.25;;;-2.90;1.00;;;;;;7371760;19;20015;-71
2024/01/13 07:21:41;;;;;;;38.28;17.10;;;-2.90;1.00;;;;;;7378199;19;20014;-69
2024/01/13 07:24:14;;;;;;;41.50;18.40;;;-2.90;1.00;;;;;;7377681;19;20013;-69
2024/01/13 07:26:47;;;;;;;37.92;15.27;;;-2.90;1.00;;;;;;7377708;19;20011;-70
2024/01/13 07:29:21;;;;;;;38.58;16.25;;;-2.80;3.50;;;;;;7375267;19;20467;-70
2024/01/13 07:31:51;;;;;;;36.47;16.85;;;-2.70;2.90;;;;;;7377082;19;20090;-68
2024/01/13 07:34:21;;;;;;;34.78;15.48;;;-2.70;1.00;;;;;;7376778;19;20010;-70
2024/01/13 07:36:51;;;;;;;41.22;17.00;;;-2.80;1.00;;;;;;7378686;19;20022;-69
2024/01/13 07:39:24;;;;;;;40.03;15.60;;;-2.70;1.00;;;;;;7375902;19;20031;-70
2024/01/13 07:41:54;;;;;;;34.28;15.40;;;-2.70;1.00;;;;;;7375474;19;20002;-69
2024/01/13 07:44:25;;;;;;;36.75;16.23;;;-2.70;1.00;;;;;;7375712;19;20430;-69
2024/01/13 07:47:00;;;;;;;38.15;15.52;;;-2.70;1.00;;;;;;7376520;19;20649;-69
2024/01/13 07:49:30;;;;;;;34.05;15.15;;;-2.70;1.00;;;;;;7375611;19;20010;-69
2024/01/13 07:52:01;;;;;;;32.20;15.70;;;-2.70;1.00;;;;;;7375861;19;20021;-69
2024/01/13 07:54:33;;;;;;;36.05;16.05;;;-2.60;1.00;;;;;;7377075;19;20010;-69
2024/01/13 07:57:04;;;;;;;33.33;15.25;;;-2.70;1.00;;;;;;7378346;19;20413;-69
2024/01/13 07:59:34;;;;;;;41.78;16.25;;;-2.70;1.00;;;;;;7377937;19;20006;-70
2024/01/13 08:02:05;;;;;;;33.17;15.00;;;-2.60;1.00;;;;;;7377215;19;20014;-69
2024/01/13 08:04:35;;;;;;;36.95;15.73;;;-2.50;1.00;;;;;;7377172;19;20028;-69
2024/01/13 08:07:05;;;;;;;29.05;12.77;;;-2.60;1.00;;;;;;7377654;19;20010;-69
2024/01/13 08:09:38;;;;;;;30.60;12.15;;;-2.60;1.00;;;;;;7376628;19;20007;-68
2024/01/13 08:12:10;;;;;;;29.65;13.25;;;-2.70;1.00;;;;;;7377804;19;20014;-69
2024/01/13 08:14:40;;;;;;;29.55;13.65;;;-2.70;1.00;;;;;;7375979;19;20212;-68
2024/01/13 08:17:10;;;;;;;27.58;12.35;;;-2.60;1.00;;;;;;7377171;19;20037;-70
2024/01/13 08:19:40;;;;;;;25.55;11.15;;;-2.60;1.00;;;;;;7375824;19;20052;-69
2024/01/13 08:22:11;;;;;;;23.50;11.88;;;-2.50;1.00;;;;;;7377186;19;20700;-69
2024/01/13 08:24:43;;;;;;;21.50;10.52;;;-2.50;1.00;;;;;;7377004;19;20097;-70
2024/01/13 08:27:13;;;;;;;19.30;9.25;;;-2.60;1.00;;;;;;7376193;19;20006;-69
2024/01/13 08:29:43;;;;;;;16.58;7.65;;;-2.50;1.00;;;;;;7376350;19;20014;-69
2024/01/13 08:32:13;;;;;;;17.83;7.95;;;-2.60;1.00;;;;;;7376942;19;20015;-70
2024/01/13 08:34:44;;;;;;;17.08;7.82;;;-2.50;1.00;;;;;;7377029;19;20048;-68
2024/01/13 08:37:14;;;;;;;16.60;8.18;;;-2.60;1.00;;;;;;7376990;19;20014;-69
2024/01/13 08:39:47;;;;;;;14.25;7.80;;;-2.60;1.00;;;;;;7376816;19;20014;-69
2024/01/13 08:42:17;;;;;;;12.70;5.35;;;-2.60;1.00;;;;;;7376821;19;20007;-69
2024/01/13 08:44:48;;;;;;;11.68;5.97;;;-2.70;1.00;;;;;;7371943;19;20638;-69
2024/01/13 08:47:18;;;;;;;11.40;6.00;;;-2.70;1.00;;;;;;7373890;19;20010;-68
2024/01/13 08:49:48;;;;;;;14.38;7.00;;;-2.80;1.00;;;;;;7377647;19;20015;-69
2024/01/13 08:52:18;;;;;;;13.82;6.97;;;-2.70;1.00;;;;;;7378925;19;20082;-68
2024/01/13 08:54:51;;;;;;;16.77;6.65;;;-2.70;1.00;;;;;;7384626;19;20010;-70
2024/01/13 08:57:21;;;;;;;20.30;9.55;;;-2.70;1.00;;;;;;7381419;19;20085;-68
2024/01/13 08:59:51;;;;;;;17.42;8.95;;;-2.60;1.00;;;;;;7382474;19;20046;-70
2024/01/13 09:02:21;;;;;;;21.40;9.57;;;-2.50;1.00;;;;;;7382524;19;20020;-70
2024/01/13 09:04:51;;;;;;;18.02;8.95;;;-2.50;1.00;;;;;;7383302;19;20134;-69
2024/01/13 09:07:22;;;;;;;21.58;9.55;;;-2.50;1.00;;;;;;7382718;19;20031;-70
2024/01/13 09:09:54;;;;;;;18.77;9.27;;;-2.40;1.00;;;;;;7382862;19;20355;-70
2024/01/13 09:12:24;;;;;;;18.10;8.88;;;-2.50;1.00;;;;;;7381028;19;20030;-70
2024/01/13 09:14:54;;;;;;;15.52;7.28;;;-2.60;1.00;;;;;;7381914;19;20021;-69
2024/01/13 09:17:24;;;;;;;17.40;8.38;;;-2.60;1.00;;;;;;7388310;19;20006;-69
2024/01/13 09:19:55;;;;;;;22.92;10.70;;;-2.70;1.00;;;;;;7383970;19;20031;-70
2024/01/13 09:22:25;;;;;;;16.95;9.25;;;-2.60;1.00;;;;;;7380599;19;20082;-69
2024/01/13 09:24:59;;;;;;;15.18;7.50;;;-2.70;1.00;;;;;;7381712;19;20026;-69
2024/01/13 09:27:29;;;;;;;15.40;8.75;;;-2.70;1.00;;;;;;7381781;19;20054;-70
2024/01/13 09:30:00;;;;;;;16.48;8.60;;;-2.70;1.00;;;;;;7382431;19;20018;-70
2024/01/13 09:32:30;;;;;;;14.68;7.82;;;-2.70;1.00;;;;;;7380512;19;20021;-68
2024/01/13 09:35:00;;;;;;;12.57;7.15;;;-2.60;1.00;;;;;;7380289;19;20094;-69
2024/01/13 09:37:30;;;;;;;14.70;7.45;;;-2.70;1.00;;;;;;7381811;19;20025;-70
2024/01/13 09:40:04;;;;;;;13.07;6.68;;;-2.50;1.00;;;;;;7381569;19;20014;-70
2024/01/13 09:42:50;;;;;;;13.85;7.88;;;-2.50;1.00;;;;;;7380819;19;20011;-69
2024/01/13 09:45:22;;;;;;;14.45;6.57;;;-2.40;1.00;;;;;;7381362;19;20010;-69
2024/01/13 09:47:54;;;;;;;13.52;7.38;;;-2.50;1.00;;;;;;7379277;19;20495;-70
2024/01/13 09:50:24;;;;;;;17.23;8.15;;;-2.50;1.00;;;;;;7378166;19;20014;-71
2024/01/13 09:52:55;;;;;;;17.48;9.23;;;-2.40;1.00;;;;;;7379171;19;20468;-69
2024/01/13 09:55:30;;;;;;;14.65;8.50;;;-2.40;1.00;;;;;;7380084;19;20050;-69
2024/01/13 09:58:00;;;;;;;16.02;9.07;;;-2.40;1.00;;;;;;7379296;19;20467;-69
2024/01/13 10:00:31;;;;;;;19.35;10.63;;;-2.50;1.00;;;;;;7379635;19;20459;-68
2024/01/13 10:03:01;;;;;;;15.80;8.88;;;-2.50;1.00;;;;;;7381101;19;20007;-70
2024/01/13 10:05:32;;;;;;;16.45;8.35;;;-2.50;1.00;;;;;;7377547;19;20010;-69
2024/01/13 10:08:02;;;;;;;16.42;9.48;;;-2.50;1.00;;;;;;7378913;19;20355;-69
2024/01/13 10:10:35;;;;;;;15.95;8.77;;;-2.40;1.00;;;;;;7378889;19;20600;-70
2024/01/13 10:13:08;;;;;;;14.85;7.22;;;-2.20;1.00;;;;;;7379360;19;20018;-70
2024/01/13 10:15:38;;;;;;;16.13;7.97;;;-2.10;1.00;;;;;;7379707;19;20428;-69
2024/01/13 10:18:09;;;;;;;15.48;8.98;;;-2.20;1.00;;;;;;7379674;19;20018;-70
2024/01/13 10:20:39;;;;;;;15.63;9.38;;;-2.20;1.00;;;;;;7379604;19;20104;-69
2024/01/13 10:23:09;;;;;;;16.08;8.93;;;-2.10;1.00;;;;;;7379960;19;20010;-70
2024/01/13 10:25:42;;;;;;;18.13;9.48;;;-2.10;1.00;;;;;;7378168;19;20015;-69
2024/01/13 10:28:13;;;;;;;17.73;10.20;;;-2.20;1.00;;;;;;7378950;19;20028;-69
2024/01/13 10:30:43;;;;;;;18.55;10.57;;;-2.40;1.00;;;;;;7377726;19;20412;-69
2024/01/13 10:33:13;;;;;;;15.75;8.20;;;-2.30;1.00;;;;;;7378681;19;20018;-68
2024/01/13 10:35:43;;;;;;;18.38;10.77;;;-2.40;1.00;;;;;;7379599;19;20018;-69
2024/01/13 10:38:14;;;;;;;20.38;11.88;;;-2.40;1.00;;;;;;7378935;19;20014;-70
2024/01/13 10:40:47;;;;;;;26.00;13.95;;;-2.30;1.00;;;;;;7377146;19;20022;-70
2024/01/13 10:43:20;;;;;;;20.65;10.73;;;-2.30;1.00;;;;;;7380219;19;20842;-69
2024/01/13 10:45:59;;;;;;;21.42;11.57;;;-2.30;1.00;;;;;;7378200;19;20047;-69
2024/01/13 10:48:40;;;;;;;21.92;11.60;;;-2.30;1.00;;;;;;7379193;19;20114;-69
2024/01/13 10:51:20;;;;;;;20.08;11.25;;;-2.20;1.00;;;;;;7377685;19;20022;-69
2024/01/13 10:54:06;;;;;;;20.35;11.88;;;-2.00;1.00;;;;;;7375724;19;20017;-69
2024/01/13 10:56:41;;;;;;;23.25;11.70;;;-2.00;1.00;;;;;;7372656;19;20543;-70
2024/01/13 10:59:13;;;;;;;23.25;11.43;;;-2.10;1.00;;;;;;7377276;19;20018;-70
2024/01/13 11:01:46;;;;;;;20.63;11.32;;;-2.00;1.00;;;;;;7379040;19;20027;-70
2024/01/13 11:04:19;;;;;;;24.35;13.05;;;-1.80;1.00;;;;;;7377390;19;20014;-68
2024/01/13 11:06:49;;;;;;;21.93;11.17;;;-2.00;1.00;;;;;;7379276;19;20034;-69
2024/01/13 11:09:23;;;;;;;21.52;11.77;;;-2.30;1.00;;;;;;7379838;19;20247;-69
2024/01/13 11:12:08;;;;;;;21.65;12.30;;;-2.20;1.00;;;;;;7379968;19;20019;-69
2024/01/13 11:14:47;;;;;;;25.67;13.23;;;-2.30;1.00;;;;;;7373070;19;20370;-68
2024/01/13 11:17:18;;;;;;;26.13;13.68;;;-2.30;1.00;;;;;;7378248;19;20471;-71
2024/01/13 11:19:48;;;;;;;26.80;15.25;;;-2.20;1.00;;;;;;7377064;19;20035;-70
2024/01/13 11:22:39;;;;;;;28.38;13.57;;;-2.00;1.00;;;;;;7378267;19;20030;-68
2024/01/13 11:25:26;;;;;;;26.67;14.35;;;-2.00;1.00;;;;;;7376991;19;20347;-70
2024/01/13 11:28:01;;;;;;;28.23;14.93;;;-1.90;1.00;;;;;;7378403;19;20034;-69
2024/01/13 11:30:40;;;;;;;25.83;14.10;;;-1.70;1.00;;;;;;7375763;19;20068;-69
2024/01/13 11:33:13;;;;;;;26.58;14.27;;;-1.60;1.00;;;;;;7383288;19;20023;-70
2024/01/13 11:35:47;;;;;;;29.02;15.23;;;-1.60;1.00;;;;;;7378463;19;20452;-70
2024/01/13 11:38:18;;;;;;;27.52;15.10;;;-1.50;1.00;;;;;;7377369;19;20015;-69
2024/01/13 11:40:50;;;;;;;27.33;14.48;;;-1.60;1.00;;;;;;7377105;19;20012;-69
2024/01/13 11:43:26;;;;;;;25.70;12.57;;;-1.50;1.00;;;;;;7377132;19;20018;-69
2024/01/13 11:45:58;;;;;;;31.25;17.08;;;-1.60;1.00;;;;;;7377370;19;20018;-69
2024/01/13 11:48:38;;;;;;;26.90;15.95;;;-1.60;1.00;;;;;;7377564;19;20531;-68
2024/01/13 11:51:13;;;;;;;25.20;13.40;;;-1.90;1.00;;;;;;7378830;19;20010;-69
2024/01/13 11:53:46;;;;;;;22.33;12.77;;;-2.00;1.00;;;;;;7376968;19;20191;-69
2024/01/13 11:56:16;;;;;;;21.58;12.35;;;-1.90;1.00;;;;;;7378677;19;20010;-70
2024/01/13 11:58:49;;;;;;;16.83;9.50;;;-1.90;1.00;;;;;;7377142;19;20036;-70
2024/01/13 12:01:19;;;;;;;17.00;11.05;;;-1.90;1.00;;;;;;7376805;19;20014;-69
2024/01/13 12:04:02;;;;;;;17.65;10.50;;;-2.10;1.00;;;;;;7377549;19;20046;-69
2024/01/13 12:06:32;;;;;;;20.42;12.77;;;-1.90;1.00;;;;;;7377830;19;20015;-69
2024/01/13 12:09:03;;;;;;;20.27;11.70;;;-1.70;1.00;;;;;;7377454;19;20041;-69
2024/01/13 12:11:33;;;;;;;18.38;11.05;;;-1.90;1.00;;;;;;7376905;19;20017;-69
2024/01/13 12:14:09;;;;;;;19.27;10.98;;;-1.90;1.00;;;;;;7378092;19;20013;-71
2024/01/13 12:16:39;;;;;;;20.17;11.18;;;-1.80;1.00;;;;;;7377686;19;20018;-70
2024/01/13 12:19:10;;;;;;;20.80;11.18;;;-1.80;1.00;;;;;;7375435;19;20015;-69
2024/01/13 12:21:40;;;;;;;16.38;9.23;;;-1.80;1.00;;;;;;7378139;19;20420;-69
2024/01/13 12:24:12;;;;;;;16.35;10.43;;;-1.80;1.00;;;;;;7373189;19;20035;-69
2024/01/13 12:26:43;;;;;;;16.08;9.73;;;-1.70;1.00;;;;;;7373762;19;20498;-68
2024/01/13 12:29:16;;;;;;;17.45;10.95;;;-1.60;1.00;;;;;;7381934;19;20340;-69
2024/01/13 12:31:46;;;;;;;14.55;9.68;;;-1.70;1.00;;;;;;7381293;19;20469;-68
2024/01/13 12:34:18;;;;;;;15.82;9.73;;;-1.70;1.00;;;;;;7384633;19;20017;-69
2024/01/13 12:36:49;;;;;;;15.15;9.75;;;-1.60;1.00;;;;;;7379752;19;20350;-68
2024/01/13 12:39:19;;;;;;;14.57;9.98;;;-1.60;1.00;;;;;;7382812;19;20006;-68
2024/01/13 12:41:50;;;;;;;14.43;9.38;;;-1.40;1.00;;;;;;7383365;19;20069;-70
2024/01/13 12:44:28;;;;;;;14.45;9.57;;;-1.40;1.00;;;;;;7383935;19;20021;-70
2024/01/13 12:46:59;;;;;;;19.98;12.43;;;-1.40;1.00;;;;;;7382720;19;20443;-69
2024/01/13 12:49:29;;;;;;;15.05;10.10;;;-1.40;1.00;;;;;;7384253;19;20017;-69
2024/01/13 12:51:59;;;;;;;17.00;9.50;;;-1.50;1.00;;;;;;7383281;19;20036;-69
2024/01/13 12:54:29;;;;;;;15.43;10.20;;;-1.50;1.00;;;;;;7383013;19;20017;-69